Southampton, New Jersey
Current Conditions -  °F | °C
As of 9:54 AM on Sunday 23 Nov 2014 (Local Time) from KVAY Reporting Station
Clear Clear  
Wind Chill: 44°   Ceiling: Unl
Heat Index: 48°   Visibility: 10mi
Dew Point: 22°   Wind: 8mph
Humidity: 36%   Direction: 250°WSW
Pressure: 30.23"   Gusts: NA
Location:  39.7955°N, 74.6301°W
Report Text: KVAY 231454Z AUTO 25007KT 10SM CLR 09/M06 A3023 RMK AO2 SLP238 T00891056 51002
Loading
Personal Weather Stations






























Interactive Weather Map New forecast layout! Learn more

10-Day Weather Forecast

Advertisements
Track Severe Weather on mobile